sensor_id;sensor_type;location;lat;lon;timestamp;temperature;humidity
19258;DHT22;9763;48.780;9.212;2023-06-26T00:01:35;26.20;35.20
19258;DHT22;9763;48.780;9.212;2023-06-26T00:04:59;26.10;35.20
19258;DHT22;9763;48.780;9.212;2023-06-26T00:08:26;26.10;35.30
19258;DHT22;9763;48.780;9.212;2023-06-26T00:11:50;26.00;35.60
19258;DHT22;9763;48.780;9.212;2023-06-26T00:15:14;26.00;35.50
19258;DHT22;9763;48.780;9.212;2023-06-26T00:18:38;25.90;35.70
19258;DHT22;9763;48.780;9.212;2023-06-26T00:22:02;25.90;35.90
19258;DHT22;9763;48.780;9.212;2023-06-26T00:25:27;25.80;36.00
19258;DHT22;9763;48.780;9.212;2023-06-26T00:28:51;25.70;36.20
19258;DHT22;9763;48.780;9.212;2023-06-26T00:32:15;25.60;36.20
19258;DHT22;9763;48.780;9.212;2023-06-26T00:35:39;25.60;36.40
19258;DHT22;9763;48.780;9.212;2023-06-26T00:39:02;25.50;36.50
19258;DHT22;9763;48.780;9.212;2023-06-26T00:42:30;25.40;36.60
19258;DHT22;9763;48.780;9.212;2023-06-26T00:45:54;25.40;36.90
19258;DHT22;9763;48.780;9.212;2023-06-26T00:49:18;25.30;37.00
19258;DHT22;9763;48.780;9.212;2023-06-26T00:52:42;25.30;37.00
19258;DHT22;9763;48.780;9.212;2023-06-26T00:56:07;25.20;37.10
19258;DHT22;9763;48.780;9.212;2023-06-26T00:59:33;25.10;37.20
19258;DHT22;9763;48.780;9.212;2023-06-26T01:02:57;25.10;37.40
19258;DHT22;9763;48.780;9.212;2023-06-26T01:06:23;25.10;37.50
19258;DHT22;9763;48.780;9.212;2023-06-26T01:09:50;25.00;37.80
19258;DHT22;9763;48.780;9.212;2023-06-26T01:13:15;24.90;37.80
19258;DHT22;9763;48.780;9.212;2023-06-26T01:16:43;24.90;38.10
19258;DHT22;9763;48.780;9.212;2023-06-26T01:20:10;24.80;38.30
19258;DHT22;9763;48.780;9.212;2023-06-26T01:23:38;24.70;38.30
19258;DHT22;9763;48.780;9.212;2023-06-26T01:27:14;24.70;38.60
19258;DHT22;9763;48.780;9.212;2023-06-26T01:30:41;24.70;38.70
19258;DHT22;9763;48.780;9.212;2023-06-26T01:34:07;24.60;38.70
19258;DHT22;9763;48.780;9.212;2023-06-26T01:37:31;24.50;38.60
19258;DHT22;9763;48.780;9.212;2023-06-26T01:40:55;24.50;38.60
19258;DHT22;9763;48.780;9.212;2023-06-26T01:44:26;24.50;38.90
19258;DHT22;9763;48.780;9.212;2023-06-26T01:47:52;24.50;39.30
19258;DHT22;9763;48.780;9.212;2023-06-26T01:51:18;24.40;39.00
19258;DHT22;9763;48.780;9.212;2023-06-26T01:54:52;24.30;39.00
19258;DHT22;9763;48.780;9.212;2023-06-26T01:58:23;24.30;39.50
19258;DHT22;9763;48.780;9.212;2023-06-26T02:01:50;24.30;39.50
19258;DHT22;9763;48.780;9.212;2023-06-26T02:05:15;24.20;39.50
19258;DHT22;9763;48.780;9.212;2023-06-26T02:08:40;24.20;39.50
19258;DHT22;9763;48.780;9.212;2023-06-26T02:12:04;24.10;39.60
19258;DHT22;9763;48.780;9.212;2023-06-26T02:15:28;24.10;39.80
19258;DHT22;9763;48.780;9.212;2023-06-26T02:18:53;24.00;39.70
19258;DHT22;9763;48.780;9.212;2023-06-26T02:22:18;24.00;39.90
19258;DHT22;9763;48.780;9.212;2023-06-26T02:25:42;24.00;39.90
19258;DHT22;9763;48.780;9.212;2023-06-26T02:29:06;23.90;40.00
19258;DHT22;9763;48.780;9.212;2023-06-26T02:32:30;23.90;40.00
19258;DHT22;9763;48.780;9.212;2023-06-26T02:35:55;23.90;40.70
19258;DHT22;9763;48.780;9.212;2023-06-26T02:39:18;23.90;40.20
19258;DHT22;9763;48.780;9.212;2023-06-26T02:42:42;23.90;40.20
19258;DHT22;9763;48.780;9.212;2023-06-26T02:46:06;24.10;40.40
19258;DHT22;9763;48.780;9.212;2023-06-26T02:49:30;23.80;40.30
19258;DHT22;9763;48.780;9.212;2023-06-26T02:52:55;23.80;40.50
19258;DHT22;9763;48.780;9.212;2023-06-26T02:56:19;23.70;40.60
19258;DHT22;9763;48.780;9.212;2023-06-26T02:59:42;23.70;40.60
19258;DHT22;9763;48.780;9.212;2023-06-26T03:03:08;23.60;40.60
19258;DHT22;9763;48.780;9.212;2023-06-26T03:06:32;23.60;41.30
19258;DHT22;9763;48.780;9.212;2023-06-26T03:09:57;23.60;40.80
19258;DHT22;9763;48.780;9.212;2023-06-26T03:13:21;23.50;40.80
19258;DHT22;9763;48.780;9.212;2023-06-26T03:16:44;23.50;40.80
19258;DHT22;9763;48.780;9.212;2023-06-26T03:20:09;23.50;40.90
19258;DHT22;9763;48.780;9.212;2023-06-26T03:23:40;23.50;41.00
19258;DHT22;9763;48.780;9.212;2023-06-26T03:27:06;23.50;41.10
19258;DHT22;9763;48.780;9.212;2023-06-26T03:30:31;23.50;41.30
19258;DHT22;9763;48.780;9.212;2023-06-26T03:33:55;23.40;41.30
19258;DHT22;9763;48.780;9.212;2023-06-26T03:37:20;23.40;41.40
19258;DHT22;9763;48.780;9.212;2023-06-26T03:40:45;23.40;42.10
19258;DHT22;9763;48.780;9.212;2023-06-26T03:44:10;23.40;41.70
19258;DHT22;9763;48.780;9.212;2023-06-26T03:47:41;23.40;41.90
19258;DHT22;9763;48.780;9.212;2023-06-26T03:51:04;23.40;41.90
19258;DHT22;9763;48.780;9.212;2023-06-26T03:54:29;23.40;42.10
19258;DHT22;9763;48.780;9.212;2023-06-26T03:57:55;23.50;42.30
19258;DHT22;9763;48.780;9.212;2023-06-26T04:01:20;23.50;42.40
19258;DHT22;9763;48.780;9.212;2023-06-26T04:04:44;23.60;42.80
19258;DHT22;9763;48.780;9.212;2023-06-26T04:08:08;23.80;43.00
19258;DHT22;9763;48.780;9.212;2023-06-26T04:11:32;23.90;43.20
19258;DHT22;9763;48.780;9.212;2023-06-26T04:14:56;24.20;43.50
19258;DHT22;9763;48.780;9.212;2023-06-26T04:18:21;24.50;43.80
19258;DHT22;9763;48.780;9.212;2023-06-26T04:21:44;24.80;43.90
19258;DHT22;9763;48.780;9.212;2023-06-26T04:25:08;25.20;43.90
19258;DHT22;9763;48.780;9.212;2023-06-26T04:28:35;25.60;43.80
19258;DHT22;9763;48.780;9.212;2023-06-26T04:32:00;26.00;43.70
19258;DHT22;9763;48.780;9.212;2023-06-26T04:35:25;26.50;43.60
19258;DHT22;9763;48.780;9.212;2023-06-26T04:38:48;26.70;43.40
19258;DHT22;9763;48.780;9.212;2023-06-26T04:42:12;27.30;43.30
19258;DHT22;9763;48.780;9.212;2023-06-26T04:45:35;27.70;43.20
19258;DHT22;9763;48.780;9.212;2023-06-26T04:49:00;28.10;43.10
19258;DHT22;9763;48.780;9.212;2023-06-26T04:52:26;28.50;42.80
19258;DHT22;9763;48.780;9.212;2023-06-26T04:55:50;28.90;42.70
19258;DHT22;9763;48.780;9.212;2023-06-26T04:59:14;29.30;42.40
19258;DHT22;9763;48.780;9.212;2023-06-26T05:02:38;29.60;42.20
19258;DHT22;9763;48.780;9.212;2023-06-26T05:06:02;30.10;42.20
19258;DHT22;9763;48.780;9.212;2023-06-26T05:09:32;30.50;41.90
19258;DHT22;9763;48.780;9.212;2023-06-26T05:12:55;30.90;41.30
19258;DHT22;9763;48.780;9.212;2023-06-26T05:16:19;31.30;41.00
19258;DHT22;9763;48.780;9.212;2023-06-26T05:19:43;31.60;40.80
19258;DHT22;9763;48.780;9.212;2023-06-26T05:23:07;31.90;40.60
19258;DHT22;9763;48.780;9.212;2023-06-26T05:26:32;32.20;40.40
19258;DHT22;9763;48.780;9.212;2023-06-26T05:29:57;32.50;40.00
19258;DHT22;9763;48.780;9.212;2023-06-26T05:33:23;32.90;39.90
19258;DHT22;9763;48.780;9.212;2023-06-26T05:36:51;33.20;39.40
19258;DHT22;9763;48.780;9.212;2023-06-26T05:40:16;33.50;39.20
19258;DHT22;9763;48.780;9.212;2023-06-26T05:43:42;33.80;39.00
19258;DHT22;9763;48.780;9.212;2023-06-26T05:47:06;34.10;38.70
19258;DHT22;9763;48.780;9.212;2023-06-26T05:50:30;34.40;38.60
19258;DHT22;9763;48.780;9.212;2023-06-26T05:53:55;34.70;38.20
19258;DHT22;9763;48.780;9.212;2023-06-26T05:57:19;35.10;38.00
19258;DHT22;9763;48.780;9.212;2023-06-26T06:00:44;35.50;37.70
19258;DHT22;9763;48.780;9.212;2023-06-26T06:04:08;35.80;37.20
19258;DHT22;9763;48.780;9.212;2023-06-26T06:07:32;36.10;36.90
19258;DHT22;9763;48.780;9.212;2023-06-26T06:10:56;36.40;36.50
19258;DHT22;9763;48.780;9.212;2023-06-26T06:14:20;36.70;36.20
19258;DHT22;9763;48.780;9.212;2023-06-26T06:17:45;37.10;35.90
19258;DHT22;9763;48.780;9.212;2023-06-26T06:21:09;37.40;35.40
19258;DHT22;9763;48.780;9.212;2023-06-26T06:24:33;37.60;35.20
19258;DHT22;9763;48.780;9.212;2023-06-26T06:27:56;37.90;34.90
19258;DHT22;9763;48.780;9.212;2023-06-26T06:31:20;38.30;34.50
19258;DHT22;9763;48.780;9.212;2023-06-26T06:34:45;38.60;34.20
19258;DHT22;9763;48.780;9.212;2023-06-26T06:38:08;38.90;33.70
19258;DHT22;9763;48.780;9.212;2023-06-26T06:41:32;39.10;33.40
19258;DHT22;9763;48.780;9.212;2023-06-26T06:45:01;39.40;33.10
19258;DHT22;9763;48.780;9.212;2023-06-26T06:48:25;39.60;32.60
19258;DHT22;9763;48.780;9.212;2023-06-26T06:51:50;39.80;32.30
19258;DHT22;9763;48.780;9.212;2023-06-26T06:55:14;40.00;32.00
19258;DHT22;9763;48.780;9.212;2023-06-26T06:58:38;40.30;31.90
19258;DHT22;9763;48.780;9.212;2023-06-26T07:02:04;40.50;31.60
19258;DHT22;9763;48.780;9.212;2023-06-26T07:05:28;40.70;31.20
19258;DHT22;9763;48.780;9.212;2023-06-26T07:08:53;41.40;31.10
19258;DHT22;9763;48.780;9.212;2023-06-26T07:12:17;41.20;30.40
19258;DHT22;9763;48.780;9.212;2023-06-26T07:15:40;41.30;30.20
19258;DHT22;9763;48.780;9.212;2023-06-26T07:19:05;41.50;30.00
19258;DHT22;9763;48.780;9.212;2023-06-26T07:22:28;41.70;29.90
19258;DHT22;9763;48.780;9.212;2023-06-26T07:25:53;41.90;29.80
19258;DHT22;9763;48.780;9.212;2023-06-26T07:29:17;42.00;29.40
19258;DHT22;9763;48.780;9.212;2023-06-26T07:32:40;42.20;29.30
19258;DHT22;9763;48.780;9.212;2023-06-26T07:36:05;42.40;29.10
19258;DHT22;9763;48.780;9.212;2023-06-26T07:39:29;42.60;28.90
19258;DHT22;9763;48.780;9.212;2023-06-26T07:42:54;42.70;28.60
19258;DHT22;9763;48.780;9.212;2023-06-26T07:46:20;42.80;28.40
19258;DHT22;9763;48.780;9.212;2023-06-26T07:49:44;43.00;28.30
19258;DHT22;9763;48.780;9.212;2023-06-26T07:53:08;43.10;28.10
19258;DHT22;9763;48.780;9.212;2023-06-26T07:56:34;43.30;28.00
19258;DHT22;9763;48.780;9.212;2023-06-26T08:00:16;43.30;27.80
19258;DHT22;9763;48.780;9.212;2023-06-26T08:03:40;43.50;27.80
19258;DHT22;9763;48.780;9.212;2023-06-26T08:07:05;43.60;27.60
19258;DHT22;9763;48.780;9.212;2023-06-26T08:10:29;43.80;27.50
19258;DHT22;9763;48.780;9.212;2023-06-26T08:13:52;44.00;27.30
19258;DHT22;9763;48.780;9.212;2023-06-26T08:17:17;44.20;27.00
19258;DHT22;9763;48.780;9.212;2023-06-26T08:20:41;44.30;26.80
19258;DHT22;9763;48.780;9.212;2023-06-26T08:24:05;44.40;27.00
19258;DHT22;9763;48.780;9.212;2023-06-26T08:27:29;44.50;26.40
19258;DHT22;9763;48.780;9.212;2023-06-26T08:30:52;44.50;26.30
19258;DHT22;9763;48.780;9.212;2023-06-26T08:34:18;44.70;26.30
19258;DHT22;9763;48.780;9.212;2023-06-26T08:37:41;44.90;26.00
19258;DHT22;9763;48.780;9.212;2023-06-26T08:41:05;44.90;25.90
19258;DHT22;9763;48.780;9.212;2023-06-26T08:44:31;45.10;25.90
19258;DHT22;9763;48.780;9.212;2023-06-26T08:47:56;45.20;25.70
19258;DHT22;9763;48.780;9.212;2023-06-26T08:51:28;45.30;25.40
19258;DHT22;9763;48.780;9.212;2023-06-26T08:54:58;45.40;25.70
19258;DHT22;9763;48.780;9.212;2023-06-26T08:58:23;45.40;25.30
19258;DHT22;9763;48.780;9.212;2023-06-26T09:01:47;45.50;25.20
19258;DHT22;9763;48.780;9.212;2023-06-26T09:05:11;45.60;25.00
19258;DHT22;9763;48.780;9.212;2023-06-26T09:08:36;45.80;24.90
19258;DHT22;9763;48.780;9.212;2023-06-26T09:12:01;45.80;24.80
19258;DHT22;9763;48.780;9.212;2023-06-26T09:15:25;45.90;24.80
19258;DHT22;9763;48.780;9.212;2023-06-26T09:18:52;46.00;24.60
19258;DHT22;9763;48.780;9.212;2023-06-26T09:22:15;46.20;24.60
19258;DHT22;9763;48.780;9.212;2023-06-26T09:25:42;46.30;24.50
19258;DHT22;9763;48.780;9.212;2023-06-26T09:29:07;46.40;24.60
19258;DHT22;9763;48.780;9.212;2023-06-26T09:32:31;46.50;24.30
19258;DHT22;9763;48.780;9.212;2023-06-26T09:35:54;46.60;24.10
19258;DHT22;9763;48.780;9.212;2023-06-26T09:39:18;46.60;23.90
19258;DHT22;9763;48.780;9.212;2023-06-26T09:42:44;46.40;23.50
19258;DHT22;9763;48.780;9.212;2023-06-26T09:46:08;46.20;23.10
19258;DHT22;9763;48.780;9.212;2023-06-26T09:49:32;45.90;23.10
19258;DHT22;9763;48.780;9.212;2023-06-26T09:52:56;45.50;23.30
19258;DHT22;9763;48.780;9.212;2023-06-26T09:56:20;45.20;23.20
19258;DHT22;9763;48.780;9.212;2023-06-26T09:59:45;44.80;23.10
19258;DHT22;9763;48.780;9.212;2023-06-26T10:03:10;44.30;23.00
19258;DHT22;9763;48.780;9.212;2023-06-26T10:06:36;43.70;23.20
19258;DHT22;9763;48.780;9.212;2023-06-26T10:10:05;43.20;23.50
19258;DHT22;9763;48.780;9.212;2023-06-26T10:13:36;42.60;23.70
19258;DHT22;9763;48.780;9.212;2023-06-26T10:17:10;42.10;24.00
19258;DHT22;9763;48.780;9.212;2023-06-26T10:20:36;41.60;24.50
19258;DHT22;9763;48.780;9.212;2023-06-26T10:24:03;41.30;25.00
19258;DHT22;9763;48.780;9.212;2023-06-26T10:27:35;41.10;25.40
19258;DHT22;9763;48.780;9.212;2023-06-26T10:31:03;40.90;25.60
19258;DHT22;9763;48.780;9.212;2023-06-26T10:34:30;40.80;25.80
19258;DHT22;9763;48.780;9.212;2023-06-26T10:38:00;40.60;25.70
19258;DHT22;9763;48.780;9.212;2023-06-26T10:41:27;40.30;25.60
19258;DHT22;9763;48.780;9.212;2023-06-26T10:44:52;39.90;25.30
19258;DHT22;9763;48.780;9.212;2023-06-26T10:48:16;39.60;25.70
19258;DHT22;9763;48.780;9.212;2023-06-26T10:51:46;39.10;25.80
19258;DHT22;9763;48.780;9.212;2023-06-26T10:55:12;38.50;26.40
19258;DHT22;9763;48.780;9.212;2023-06-26T10:58:41;37.80;26.40
19258;DHT22;9763;48.780;9.212;2023-06-26T11:02:06;37.20;27.20
19258;DHT22;9763;48.780;9.212;2023-06-26T11:05:33;36.70;28.20
19258;DHT22;9763;48.780;9.212;2023-06-26T11:09:06;36.50;28.90
19258;DHT22;9763;48.780;9.212;2023-06-26T11:12:35;36.50;29.60
19258;DHT22;9763;48.780;9.212;2023-06-26T11:16:01;36.70;29.90
19258;DHT22;9763;48.780;9.212;2023-06-26T11:19:26;36.90;29.80
19258;DHT22;9763;48.780;9.212;2023-06-26T11:22:52;37.20;29.70
19258;DHT22;9763;48.780;9.212;2023-06-26T11:26:21;37.40;29.40
19258;DHT22;9763;48.780;9.212;2023-06-26T11:29:47;37.50;29.00
19258;DHT22;9763;48.780;9.212;2023-06-26T11:33:11;37.70;29.10
19258;DHT22;9763;48.780;9.212;2023-06-26T11:36:36;37.80;28.90
19258;DHT22;9763;48.780;9.212;2023-06-26T11:40:16;37.90;29.00
19258;DHT22;9763;48.780;9.212;2023-06-26T11:43:41;38.10;29.10
19258;DHT22;9763;48.780;9.212;2023-06-26T11:47:06;38.20;29.10
19258;DHT22;9763;48.780;9.212;2023-06-26T11:50:30;38.50;29.10
19258;DHT22;9763;48.780;9.212;2023-06-26T11:53:53;38.70;28.90
19258;DHT22;9763;48.780;9.212;2023-06-26T11:57:17;38.90;28.80
19258;DHT22;9763;48.780;9.212;2023-06-26T12:00:43;38.80;28.60
19258;DHT22;9763;48.780;9.212;2023-06-26T12:04:08;38.70;28.50
19258;DHT22;9763;48.780;9.212;2023-06-26T12:07:34;38.80;28.80
19258;DHT22;9763;48.780;9.212;2023-06-26T12:10:59;38.70;29.50
19258;DHT22;9763;48.780;9.212;2023-06-26T12:14:23;38.70;29.30
19258;DHT22;9763;48.780;9.212;2023-06-26T12:17:52;38.50;29.30
19258;DHT22;9763;48.780;9.212;2023-06-26T12:21:44;38.20;29.40
19258;DHT22;9763;48.780;9.212;2023-06-26T12:25:09;37.80;30.00
19258;DHT22;9763;48.780;9.212;2023-06-26T12:28:36;37.50;30.00
19258;DHT22;9763;48.780;9.212;2023-06-26T12:32:00;37.10;30.70
19258;DHT22;9763;48.780;9.212;2023-06-26T12:35:26;37.00;31.20
19258;DHT22;9763;48.780;9.212;2023-06-26T12:38:52;37.00;31.70
19258;DHT22;9763;48.780;9.212;2023-06-26T12:42:17;37.00;31.70
19258;DHT22;9763;48.780;9.212;2023-06-26T12:45:42;36.90;31.70
19258;DHT22;9763;48.780;9.212;2023-06-26T12:49:06;36.90;31.70
19258;DHT22;9763;48.780;9.212;2023-06-26T12:52:51;36.90;32.00
19258;DHT22;9763;48.780;9.212;2023-06-26T12:56:14;37.00;31.90
19258;DHT22;9763;48.780;9.212;2023-06-26T12:59:38;37.00;31.80
19258;DHT22;9763;48.780;9.212;2023-06-26T13:03:02;37.10;31.60
19258;DHT22;9763;48.780;9.212;2023-06-26T13:06:26;37.10;31.60
19258;DHT22;9763;48.780;9.212;2023-06-26T13:09:51;37.00;31.50
19258;DHT22;9763;48.780;9.212;2023-06-26T13:13:15;37.00;31.50
19258;DHT22;9763;48.780;9.212;2023-06-26T13:16:40;37.00;31.70
19258;DHT22;9763;48.780;9.212;2023-06-26T13:20:05;37.00;31.50
19258;DHT22;9763;48.780;9.212;2023-06-26T13:23:30;37.00;31.50
19258;DHT22;9763;48.780;9.212;2023-06-26T13:26:55;36.90;31.40
19258;DHT22;9763;48.780;9.212;2023-06-26T13:30:19;36.80;31.60
19258;DHT22;9763;48.780;9.212;2023-06-26T13:33:43;36.70;31.60
19258;DHT22;9763;48.780;9.212;2023-06-26T13:37:08;36.60;31.60
19258;DHT22;9763;48.780;9.212;2023-06-26T13:40:31;36.60;31.50
19258;DHT22;9763;48.780;9.212;2023-06-26T13:43:56;36.50;31.50
19258;DHT22;9763;48.780;9.212;2023-06-26T13:47:27;36.40;31.40
19258;DHT22;9763;48.780;9.212;2023-06-26T13:50:51;36.30;31.10
19258;DHT22;9763;48.780;9.212;2023-06-26T13:54:16;36.10;30.80
19258;DHT22;9763;48.780;9.212;2023-06-26T13:57:40;35.90;30.60
19258;DHT22;9763;48.780;9.212;2023-06-26T14:01:05;35.80;30.50
19258;DHT22;9763;48.780;9.212;2023-06-26T14:04:29;35.60;30.50
19258;DHT22;9763;48.780;9.212;2023-06-26T14:07:52;35.50;30.70
19258;DHT22;9763;48.780;9.212;2023-06-26T14:11:18;35.40;30.40
19258;DHT22;9763;48.780;9.212;2023-06-26T14:14:42;35.20;30.20
19258;DHT22;9763;48.780;9.212;2023-06-26T14:18:08;35.10;30.10
19258;DHT22;9763;48.780;9.212;2023-06-26T14:21:31;34.90;30.20
19258;DHT22;9763;48.780;9.212;2023-06-26T14:24:55;34.70;30.30
19258;DHT22;9763;48.780;9.212;2023-06-26T14:28:19;34.60;30.40
19258;DHT22;9763;48.780;9.212;2023-06-26T14:31:42;34.50;30.20
19258;DHT22;9763;48.780;9.212;2023-06-26T14:35:08;34.40;30.20
19258;DHT22;9763;48.780;9.212;2023-06-26T14:38:31;34.30;30.50
19258;DHT22;9763;48.780;9.212;2023-06-26T14:41:55;34.20;30.70
19258;DHT22;9763;48.780;9.212;2023-06-26T14:45:19;34.20;31.10
19258;DHT22;9763;48.780;9.212;2023-06-26T14:48:44;34.10;30.80
19258;DHT22;9763;48.780;9.212;2023-06-26T14:52:09;33.90;30.70
19258;DHT22;9763;48.780;9.212;2023-06-26T14:55:33;33.90;30.90
19258;DHT22;9763;48.780;9.212;2023-06-26T14:58:56;33.70;30.90
19258;DHT22;9763;48.780;9.212;2023-06-26T15:02:20;33.60;31.00
19258;DHT22;9763;48.780;9.212;2023-06-26T15:05:44;33.50;31.50
19258;DHT22;9763;48.780;9.212;2023-06-26T15:09:09;33.40;31.60
19258;DHT22;9763;48.780;9.212;2023-06-26T15:12:32;33.30;32.00
19258;DHT22;9763;48.780;9.212;2023-06-26T15:15:56;33.20;32.10
19258;DHT22;9763;48.780;9.212;2023-06-26T15:19:20;33.10;32.20
19258;DHT22;9763;48.780;9.212;2023-06-26T15:22:44;34.10;33.00
19258;DHT22;9763;48.780;9.212;2023-06-26T15:26:09;33.00;32.60
19258;DHT22;9763;48.780;9.212;2023-06-26T15:29:32;32.90;32.60
19258;DHT22;9763;48.780;9.212;2023-06-26T15:32:56;32.80;32.70
19258;DHT22;9763;48.780;9.212;2023-06-26T15:36:20;32.80;32.60
19258;DHT22;9763;48.780;9.212;2023-06-26T15:39:44;32.70;32.70
19258;DHT22;9763;48.780;9.212;2023-06-26T15:43:09;32.60;32.80
19258;DHT22;9763;48.780;9.212;2023-06-26T15:46:33;32.50;32.80
19258;DHT22;9763;48.780;9.212;2023-06-26T15:49:58;32.40;32.90
19258;DHT22;9763;48.780;9.212;2023-06-26T15:53:34;32.30;32.90
19258;DHT22;9763;48.780;9.212;2023-06-26T15:56:59;32.20;33.10
19258;DHT22;9763;48.780;9.212;2023-06-26T16:00:24;32.20;33.00
19258;DHT22;9763;48.780;9.212;2023-06-26T16:03:48;32.20;33.00
19258;DHT22;9763;48.780;9.212;2023-06-26T16:07:11;32.10;33.20
19258;DHT22;9763;48.780;9.212;2023-06-26T16:10:35;32.00;33.20
19258;DHT22;9763;48.780;9.212;2023-06-26T16:13:59;31.90;33.50
19258;DHT22;9763;48.780;9.212;2023-06-26T16:17:24;31.80;33.50
19258;DHT22;9763;48.780;9.212;2023-06-26T16:20:47;31.70;33.50
19258;DHT22;9763;48.780;9.212;2023-06-26T16:24:11;31.60;33.70
19258;DHT22;9763;48.780;9.212;2023-06-26T16:27:34;31.50;33.80
19258;DHT22;9763;48.780;9.212;2023-06-26T16:30:58;31.50;34.00
19258;DHT22;9763;48.780;9.212;2023-06-26T16:34:23;31.40;34.10
19258;DHT22;9763;48.780;9.212;2023-06-26T16:37:47;31.40;34.00
19258;DHT22;9763;48.780;9.212;2023-06-26T16:41:11;31.30;33.70
19258;DHT22;9763;48.780;9.212;2023-06-26T16:44:35;31.20;33.50
19258;DHT22;9763;48.780;9.212;2023-06-26T16:47:58;31.20;33.60
19258;DHT22;9763;48.780;9.212;2023-06-26T16:51:23;31.10;33.50
19258;DHT22;9763;48.780;9.212;2023-06-26T16:54:47;31.10;33.40
19258;DHT22;9763;48.780;9.212;2023-06-26T16:58:11;31.00;33.30
19258;DHT22;9763;48.780;9.212;2023-06-26T17:01:35;30.90;33.00
19258;DHT22;9763;48.780;9.212;2023-06-26T17:04:59;30.90;32.80
19258;DHT22;9763;48.780;9.212;2023-06-26T17:08:25;30.80;32.40
19258;DHT22;9763;48.780;9.212;2023-06-26T17:11:48;30.70;31.70
19258;DHT22;9763;48.780;9.212;2023-06-26T17:15:12;30.60;31.10
19258;DHT22;9763;48.780;9.212;2023-06-26T17:18:35;30.50;30.80
19258;DHT22;9763;48.780;9.212;2023-06-26T17:21:59;30.40;30.50
19258;DHT22;9763;48.780;9.212;2023-06-26T17:25:24;30.30;30.40
19258;DHT22;9763;48.780;9.212;2023-06-26T17:28:49;30.20;30.30
19258;DHT22;9763;48.780;9.212;2023-06-26T17:32:13;30.10;30.20
19258;DHT22;9763;48.780;9.212;2023-06-26T17:35:43;30.00;30.20
19258;DHT22;9763;48.780;9.212;2023-06-26T17:39:07;29.90;30.60
19258;DHT22;9763;48.780;9.212;2023-06-26T17:42:32;29.90;30.50
19258;DHT22;9763;48.780;9.212;2023-06-26T17:45:56;29.80;30.40
19258;DHT22;9763;48.780;9.212;2023-06-26T17:49:19;29.70;30.10
19258;DHT22;9763;48.780;9.212;2023-06-26T17:52:44;29.70;30.10
19258;DHT22;9763;48.780;9.212;2023-06-26T17:56:08;31.00;31.00
19258;DHT22;9763;48.780;9.212;2023-06-26T17:59:33;29.50;30.00
19258;DHT22;9763;48.780;9.212;2023-06-26T18:02:58;29.40;29.80
19258;DHT22;9763;48.780;9.212;2023-06-26T18:06:21;29.30;29.80
19258;DHT22;9763;48.780;9.212;2023-06-26T18:09:46;29.20;29.60
19258;DHT22;9763;48.780;9.212;2023-06-26T18:13:09;29.10;29.40
19258;DHT22;9763;48.780;9.212;2023-06-26T18:16:35;29.00;29.50
19258;DHT22;9763;48.780;9.212;2023-06-26T18:19:58;28.80;29.50
19258;DHT22;9763;48.780;9.212;2023-06-26T18:23:23;28.70;29.50
19258;DHT22;9763;48.780;9.212;2023-06-26T18:26:47;28.70;29.50
19258;DHT22;9763;48.780;9.212;2023-06-26T18:30:12;28.60;29.70
19258;DHT22;9763;48.780;9.212;2023-06-26T18:33:38;28.50;29.60
19258;DHT22;9763;48.780;9.212;2023-06-26T18:37:02;28.50;29.60
19258;DHT22;9763;48.780;9.212;2023-06-26T18:40:26;28.40;29.80
19258;DHT22;9763;48.780;9.212;2023-06-26T18:43:49;28.40;29.80
19258;DHT22;9763;48.780;9.212;2023-06-26T18:47:13;28.20;29.80
19258;DHT22;9763;48.780;9.212;2023-06-26T18:50:38;28.20;29.90
19258;DHT22;9763;48.780;9.212;2023-06-26T18:54:02;28.10;30.00
19258;DHT22;9763;48.780;9.212;2023-06-26T18:57:26;28.10;30.00
19258;DHT22;9763;48.780;9.212;2023-06-26T19:00:50;28.00;30.00
19258;DHT22;9763;48.780;9.212;2023-06-26T19:04:13;27.90;30.00
19258;DHT22;9763;48.780;9.212;2023-06-26T19:07:39;27.90;30.20
19258;DHT22;9763;48.780;9.212;2023-06-26T19:11:03;27.80;30.30
19258;DHT22;9763;48.780;9.212;2023-06-26T19:14:26;27.70;30.30
19258;DHT22;9763;48.780;9.212;2023-06-26T19:17:50;27.70;30.50
19258;DHT22;9763;48.780;9.212;2023-06-26T19:21:14;27.60;30.60
19258;DHT22;9763;48.780;9.212;2023-06-26T19:24:39;27.60;30.80
19258;DHT22;9763;48.780;9.212;2023-06-26T19:28:03;27.50;30.90
19258;DHT22;9763;48.780;9.212;2023-06-26T19:31:27;27.40;31.00
19258;DHT22;9763;48.780;9.212;2023-06-26T19:34:51;27.30;31.00
19258;DHT22;9763;48.780;9.212;2023-06-26T19:38:15;27.20;31.20
19258;DHT22;9763;48.780;9.212;2023-06-26T19:41:40;27.10;31.30
19258;DHT22;9763;48.780;9.212;2023-06-26T19:45:05;26.90;31.40
19258;DHT22;9763;48.780;9.212;2023-06-26T19:48:29;26.90;31.70
19258;DHT22;9763;48.780;9.212;2023-06-26T19:51:53;26.80;31.50
19258;DHT22;9763;48.780;9.212;2023-06-26T19:55:17;26.70;31.60
19258;DHT22;9763;48.780;9.212;2023-06-26T19:58:42;26.70;31.90
19258;DHT22;9763;48.780;9.212;2023-06-26T20:02:06;26.60;32.00
19258;DHT22;9763;48.780;9.212;2023-06-26T20:05:30;26.50;32.00
19258;DHT22;9763;48.780;9.212;2023-06-26T20:08:54;26.50;32.10
19258;DHT22;9763;48.780;9.212;2023-06-26T20:12:18;26.40;32.30
19258;DHT22;9763;48.780;9.212;2023-06-26T20:15:43;26.30;32.20
19258;DHT22;9763;48.780;9.212;2023-06-26T20:19:07;26.30;32.40
19258;DHT22;9763;48.780;9.212;2023-06-26T20:22:31;26.20;32.40
19258;DHT22;9763;48.780;9.212;2023-06-26T20:25:54;26.10;32.60
19258;DHT22;9763;48.780;9.212;2023-06-26T20:29:18;26.10;32.80
19258;DHT22;9763;48.780;9.212;2023-06-26T20:32:43;26.00;32.90
19258;DHT22;9763;48.780;9.212;2023-06-26T20:36:08;26.00;33.20
19258;DHT22;9763;48.780;9.212;2023-06-26T20:39:32;25.90;33.30
19258;DHT22;9763;48.780;9.212;2023-06-26T20:42:56;25.80;33.40
19258;DHT22;9763;48.780;9.212;2023-06-26T20:46:21;25.80;33.70
19258;DHT22;9763;48.780;9.212;2023-06-26T20:49:55;25.70;33.90
19258;DHT22;9763;48.780;9.212;2023-06-26T20:53:20;25.70;34.00
19258;DHT22;9763;48.780;9.212;2023-06-26T20:56:44;25.60;34.10
19258;DHT22;9763;48.780;9.212;2023-06-26T21:00:08;25.60;34.30
19258;DHT22;9763;48.780;9.212;2023-06-26T21:03:33;25.50;34.50
19258;DHT22;9763;48.780;9.212;2023-06-26T21:06:58;25.50;34.40
19258;DHT22;9763;48.780;9.212;2023-06-26T21:10:24;25.50;34.60
19258;DHT22;9763;48.780;9.212;2023-06-26T21:13:47;25.40;34.60
19258;DHT22;9763;48.780;9.212;2023-06-26T21:17:11;25.40;35.00
19258;DHT22;9763;48.780;9.212;2023-06-26T21:20:35;25.30;35.00
19258;DHT22;9763;48.780;9.212;2023-06-26T21:24:00;25.30;35.10
19258;DHT22;9763;48.780;9.212;2023-06-26T21:27:23;25.30;35.40
19258;DHT22;9763;48.780;9.212;2023-06-26T21:30:47;25.20;35.40
19258;DHT22;9763;48.780;9.212;2023-06-26T21:34:11;25.20;35.50
19258;DHT22;9763;48.780;9.212;2023-06-26T21:37:35;25.10;35.50
19258;DHT22;9763;48.780;9.212;2023-06-26T21:41:00;25.10;35.50
19258;DHT22;9763;48.780;9.212;2023-06-26T21:44:24;25.00;35.60
19258;DHT22;9763;48.780;9.212;2023-06-26T21:47:47;25.00;35.80
19258;DHT22;9763;48.780;9.212;2023-06-26T21:51:11;25.00;35.90
19258;DHT22;9763;48.780;9.212;2023-06-26T21:54:35;25.00;35.90